Time;durP1;ratioP1;P1;durP2;ratioP2;P2;SDS_P1;SDS_P2;PMS_P1;PMS_P2;Temp;Humidity;BMP_temperature;BMP_pressure;BME280_temperature;BME280_humidity;BME280_pressure;Samples;Min_cycle;Max_cycle;Signal;HPM_P1;HPM_P2
2023/01/04 00:01:15;;;;;;;16.70;10.33;;;2.20;99.90;;;;;;4973691;28;20251;-30
2023/01/04 00:03:41;;;;;;;14.77;10.73;;;2.20;99.90;;;;;;4973418;28;20254;-30
2023/01/04 00:06:10;;;;;;;16.07;10.40;;;2.20;99.90;;;;;;4973816;28;20180;-30
2023/01/04 00:08:37;;;;;;;14.90;11.17;;;2.20;99.90;;;;;;4991222;28;20250;-30
2023/01/04 00:11:05;;;;;;;14.97;11.07;;;2.30;99.90;;;;;;4973614;28;20180;-30
2023/01/04 00:13:31;;;;;;;16.07;10.93;;;2.30;99.90;;;;;;4991204;28;20176;-31
2023/01/04 00:16:02;;;;;;;15.17;11.27;;;2.30;99.90;;;;;;4991253;28;20171;-31
2023/01/04 00:18:30;;;;;;;17.23;12.27;;;2.30;99.90;;;;;;4973348;28;20200;-30
2023/01/04 00:21:10;;;;;;;16.77;11.30;;;2.40;99.90;;;;;;4989740;28;20183;-29
2023/01/04 00:23:38;;;;;;;15.87;10.67;;;2.40;99.90;;;;;;4973876;28;20190;-30
2023/01/04 00:26:12;;;;;;;17.07;10.33;;;2.40;99.90;;;;;;4989770;28;20180;-30
2023/01/04 00:28:39;;;;;;;15.37;9.93;;;2.40;99.90;;;;;;4973459;28;20253;-30
2023/01/04 00:31:06;;;;;;;20.63;9.93;;;2.40;99.90;;;;;;4973695;28;20251;-30
2023/01/04 00:33:33;;;;;;;15.67;10.67;;;2.30;99.90;;;;;;4989452;28;20180;-29
2023/01/04 00:36:11;;;;;;;14.40;8.53;;;2.30;99.90;;;;;;4973794;28;20247;-29
2023/01/04 00:38:38;;;;;;;13.87;8.20;;;2.20;99.90;;;;;;4976863;28;20246;-30
2023/01/04 00:41:05;;;;;;;11.23;7.97;;;2.20;99.90;;;;;;4977136;28;20187;-30
2023/01/04 00:43:31;;;;;;;15.07;8.60;;;2.20;99.90;;;;;;4976899;28;20191;-30
2023/01/04 00:45:57;;;;;;;14.90;9.40;;;2.20;99.90;;;;;;4960724;28;20183;-29
2023/01/04 00:48:23;;;;;;;18.13;9.63;;;2.20;99.90;;;;;;4977014;28;20266;-30
2023/01/04 00:50:49;;;;;;;19.60;8.90;;;2.10;99.90;;;;;;4994259;28;20175;-29
2023/01/04 00:53:16;;;;;;;38.87;9.47;;;2.10;99.90;;;;;;4977181;28;20270;-30
2023/01/04 00:55:43;;;;;;;15.80;9.13;;;2.10;99.90;;;;;;4994502;28;20207;-30
2023/01/04 00:58:09;;;;;;;15.43;9.13;;;2.00;99.90;;;;;;4976900;28;20219;-29
2023/01/04 01:00:35;;;;;;;22.50;11.07;;;2.00;99.90;;;;;;4976544;28;20187;-30
2023/01/04 01:03:01;;;;;;;22.37;11.93;;;2.10;99.90;;;;;;4976543;28;20187;-30
2023/01/04 01:05:27;;;;;;;24.53;12.33;;;2.10;99.90;;;;;;4976769;28;20297;-30
2023/01/04 01:07:53;;;;;;;16.23;10.73;;;2.20;99.90;;;;;;4960434;28;20660;-29
2023/01/04 01:10:19;;;;;;;37.67;13.00;;;2.20;99.90;;;;;;4976559;28;20192;-29
2023/01/04 01:12:45;;;;;;;16.47;10.50;;;2.30;99.90;;;;;;4994159;28;20206;-30
2023/01/04 01:15:10;;;;;;;16.60;10.63;;;2.20;99.90;;;;;;4976268;28;20179;-30
2023/01/04 01:17:36;;;;;;;21.63;10.30;;;2.30;99.90;;;;;;4976589;28;20191;-29
2023/01/04 01:20:04;;;;;;;15.17;9.90;;;2.30;99.90;;;;;;4976325;28;20219;-30
2023/01/04 01:22:31;;;;;;;21.57;11.33;;;2.30;99.90;;;;;;4994202;28;20259;-30
2023/01/04 01:24:56;;;;;;;14.10;10.70;;;2.30;99.90;;;;;;4976655;28;20303;-30
2023/01/04 01:27:22;;;;;;;25.13;11.13;;;2.30;99.90;;;;;;4976228;28;20180;-30
2023/01/04 01:29:48;;;;;;;30.40;11.20;;;2.20;99.90;;;;;;4975989;28;20203;-31
2023/01/04 01:32:14;;;;;;;14.67;9.97;;;2.10;99.90;;;;;;4976600;28;20233;-30
2023/01/04 01:34:40;;;;;;;15.13;10.50;;;2.00;99.90;;;;;;4976049;28;20191;-31
2023/01/04 01:37:05;;;;;;;38.00;13.13;;;2.00;99.90;;;;;;4975890;28;20278;-31
2023/01/04 01:39:31;;;;;;;24.00;11.93;;;1.90;99.90;;;;;;4993354;28;20238;-30
2023/01/04 01:41:58;;;;;;;23.70;12.70;;;1.90;99.90;;;;;;4976166;28;20206;-30
2023/01/04 01:44:45;;;;;;;22.60;13.03;;;1.90;99.90;;;;;;4992212;28;20218;-30
2023/01/04 01:47:16;;;;;;;37.47;13.77;;;2.00;99.90;;;;;;4993438;28;20213;-30
2023/01/04 01:49:44;;;;;;;23.67;13.63;;;2.10;99.90;;;;;;4992827;28;20250;-31
2023/01/04 01:52:26;;;;;;;21.80;13.87;;;2.10;99.90;;;;;;4993059;28;20187;-31
2023/01/04 01:54:57;;;;;;;25.10;13.70;;;2.20;99.90;;;;;;4993392;28;20183;-30
2023/01/04 01:57:26;;;;;;;26.60;15.67;;;2.20;99.90;;;;;;4993328;28;20184;-31
2023/01/04 01:59:57;;;;;;;21.53;10.80;;;2.20;99.90;;;;;;4975566;28;20203;-31
2023/01/04 02:02:23;;;;;;;20.83;9.40;;;2.20;99.90;;;;;;4976060;28;20203;-30
2023/01/04 02:04:54;;;;;;;31.03;9.20;;;2.10;99.90;;;;;;4992845;28;20200;-29
2023/01/04 02:07:24;;;;;;;26.80;9.07;;;1.80;99.90;;;;;;4975061;28;20267;-29
2023/01/04 02:09:50;;;;;;;10.63;7.03;;;1.60;99.90;;;;;;4992652;28;20254;-30
2023/01/04 02:12:16;;;;;;;25.30;7.80;;;1.60;99.90;;;;;;4993132;28;20689;-30
2023/01/04 02:14:44;;;;;;;21.77;7.97;;;1.50;99.90;;;;;;4993001;28;20183;-31
2023/01/04 02:17:23;;;;;;;19.10;8.27;;;1.40;99.90;;;;;;4975294;28;20183;-29
2023/01/04 02:20:25;;;;;;;17.63;8.80;;;1.40;99.90;;;;;;4991408;28;20233;-30
2023/01/04 02:23:15;;;;;;;19.60;8.53;;;1.50;99.90;;;;;;4992775;28;20198;-30
2023/01/04 02:25:59;;;;;;;15.87;9.27;;;1.50;99.90;;;;;;4975406;28;20219;-29
2023/01/04 02:28:52;;;;;;;29.73;9.33;;;1.50;99.90;;;;;;4992938;28;20218;-30
2023/01/04 02:31:32;;;;;;;13.03;8.53;;;1.50;99.90;;;;;;4975118;28;20175;-30
2023/01/04 02:34:16;;;;;;;13.63;8.80;;;1.50;99.90;;;;;;4958450;28;20238;-31
2023/01/04 02:36:57;;;;;;;13.10;8.60;;;1.50;99.90;;;;;;4958696;28;20180;-30
2023/01/04 02:39:29;;;;;;;12.73;8.53;;;1.50;99.90;;;;;;4982788;28;20207;-30
2023/01/04 02:42:10;;;;;;;12.43;8.30;;;1.50;99.90;;;;;;4992627;28;20187;-30
2023/01/04 02:44:52;;;;;;;11.60;8.40;;;1.40;99.90;;;;;;4992664;28;20302;-30
2023/01/04 02:50:30;;;;;;;15.50;8.33;;;1.40;99.90;;;;;;4992708;28;20203;-29
2023/01/04 02:52:59;;;;;;;23.57;9.93;;;1.40;99.90;;;;;;4992652;28;20188;-30
2023/01/04 02:55:33;;;;;;;30.63;9.70;;;1.30;99.90;;;;;;4992527;28;20183;-30
2023/01/04 02:58:12;;;;;;;32.67;11.50;;;1.20;99.90;;;;;;4992064;28;20316;-30
2023/01/04 03:07:02;;;;;;;47.90;13.10;;;1.10;99.90;;;;;;4992013;28;20191;-31
2023/01/04 03:09:32;;;;;;;40.40;13.37;;;1.10;99.90;;;;;;4974325;28;20281;-30
2023/01/04 03:15:13;;;;;;;73.33;15.43;;;1.20;99.90;;;;;;4934235;29;20224;-30
2023/01/04 03:17:52;;;;;;;49.17;13.53;;;1.20;99.90;;;;;;4985282;28;20691;-31
2023/01/04 03:20:19;;;;;;;68.83;15.73;;;1.20;99.90;;;;;;4974243;28;20194;-30
2023/01/04 03:37:16;;;;;;;23.00;11.93;;;1.30;99.90;;;;;;4986320;28;20230;-31
2023/01/04 03:49:16;;;;;;;17.60;8.87;;;1.30;99.90;;;;;;4973538;28;20218;-30
2023/01/04 03:51:43;;;;;;;17.53;7.83;;;1.30;99.90;;;;;;4958104;28;20187;-30
2023/01/04 03:54:19;;;;;;;28.47;7.77;;;1.20;99.90;;;;;;4973912;28;20195;-29
2023/01/04 03:56:48;;;;;;;15.43;6.83;;;1.20;99.90;;;;;;4991423;28;20210;-31
2023/01/04 03:59:14;;;;;;;25.47;7.83;;;1.20;99.90;;;;;;4973269;28;20207;-30
2023/01/04 04:01:42;;;;;;;19.97;9.60;;;1.10;99.90;;;;;;4973696;28;20190;-31
2023/01/04 04:09:37;;;;;;;15.87;10.70;;;0.90;99.90;;;;;;4954022;28;20203;-29
2023/01/04 04:12:03;;;;;;;13.17;9.83;;;1.10;99.90;;;;;;4973468;28;20177;-30
2023/01/04 04:14:29;;;;;;;15.90;11.23;;;1.20;99.90;;;;;;4958128;28;20199;-30
2023/01/04 04:16:55;;;;;;;13.93;10.00;;;1.30;99.90;;;;;;4958517;28;20600;-30
2023/01/04 04:19:20;;;;;;;16.30;11.80;;;1.40;99.90;;;;;;4958308;28;20200;-31
2023/01/04 04:21:46;;;;;;;14.10;9.37;;;1.50;99.90;;;;;;4958165;28;20195;-30
2023/01/04 04:24:18;;;;;;;10.60;7.70;;;1.50;99.90;;;;;;4957783;28;20301;-32
2023/01/04 04:26:44;;;;;;;8.23;6.47;;;1.50;99.90;;;;;;4958470;28;20194;-29
2023/01/04 04:29:10;;;;;;;7.80;6.33;;;1.50;99.90;;;;;;4975255;28;20263;-30
2023/01/04 04:31:36;;;;;;;9.77;6.93;;;1.40;99.90;;;;;;4958079;28;20319;-31
2023/01/04 04:34:02;;;;;;;7.40;6.00;;;1.40;99.90;;;;;;4984503;28;20182;-30
2023/01/04 04:36:27;;;;;;;6.53;5.83;;;1.30;99.90;;;;;;4977259;28;20197;-31
2023/01/04 04:38:53;;;;;;;7.53;6.13;;;1.20;99.90;;;;;;4976742;28;20200;-30
2023/01/04 04:41:37;;;;;;;6.67;5.97;;;1.10;99.90;;;;;;4961320;28;20190;-28
2023/01/04 04:44:08;;;;;;;7.63;6.57;;;1.10;99.90;;;;;;4977226;28;20262;-29
2023/01/04 04:46:34;;;;;;;8.57;6.60;;;1.10;99.90;;;;;;4961220;28;20183;-29
2023/01/04 04:49:00;;;;;;;9.00;6.70;;;1.20;99.90;;;;;;4976540;28;20215;-31
2023/01/04 04:51:25;;;;;;;8.67;7.20;;;1.20;99.90;;;;;;4976899;28;20190;-30
2023/01/04 04:53:51;;;;;;;7.90;6.63;;;1.20;99.90;;;;;;4961070;28;20198;-30
2023/01/04 04:56:17;;;;;;;8.57;6.50;;;1.20;99.90;;;;;;4994796;28;20182;-29
2023/01/04 04:58:43;;;;;;;8.17;6.77;;;1.30;99.90;;;;;;4993146;28;20213;-31
2023/01/04 05:01:09;;;;;;;7.67;6.30;;;1.40;99.90;;;;;;4976642;28;20194;-30
2023/01/04 05:03:35;;;;;;;8.17;6.90;;;1.50;99.90;;;;;;4976742;28;20183;-31
2023/01/04 05:06:01;;;;;;;9.87;6.73;;;1.50;99.90;;;;;;4976737;28;20210;-30
2023/01/04 05:08:27;;;;;;;7.43;6.27;;;1.50;99.90;;;;;;4994215;28;20298;-30
2023/01/04 05:10:53;;;;;;;8.70;6.37;;;1.50;99.90;;;;;;4960414;28;20180;-29
2023/01/04 05:13:18;;;;;;;7.47;6.27;;;1.50;99.90;;;;;;4992843;28;20186;-29
2023/01/04 05:15:48;;;;;;;9.00;7.10;;;1.50;99.90;;;;;;4976602;28;20187;-29
2023/01/04 05:18:16;;;;;;;8.70;7.30;;;1.60;99.90;;;;;;4976903;28;20211;-30
2023/01/04 05:20:42;;;;;;;6.97;6.27;;;1.60;99.90;;;;;;4960361;28;20183;-31
2023/01/04 05:23:10;;;;;;;7.70;6.17;;;1.60;99.90;;;;;;4976122;28;20187;-30
2023/01/04 05:25:36;;;;;;;6.70;5.80;;;1.70;99.90;;;;;;4976222;28;20222;-30
2023/01/04 05:28:02;;;;;;;7.23;5.87;;;1.70;99.90;;;;;;4976095;28;20215;-31
2023/01/04 05:33:12;;;;;;;9.33;6.40;;;1.80;99.90;;;;;;4976318;28;20202;-30
2023/01/04 05:35:38;;;;;;;9.27;6.97;;;1.80;99.90;;;;;;4993664;28;20195;-30
2023/01/04 05:38:04;;;;;;;7.67;6.70;;;1.80;99.90;;;;;;4976360;28;20210;-30
2023/01/04 05:40:30;;;;;;;9.37;6.60;;;1.80;99.90;;;;;;4975855;28;20195;-30
2023/01/04 05:42:55;;;;;;;8.10;6.50;;;1.80;99.90;;;;;;4976262;28;20206;-29
2023/01/04 05:45:21;;;;;;;9.63;6.87;;;1.80;99.90;;;;;;4993649;28;20211;-31
2023/01/04 05:47:51;;;;;;;11.37;7.67;;;1.80;99.90;;;;;;4992264;28;20186;-30
2023/01/04 05:50:19;;;;;;;14.83;9.00;;;1.80;99.90;;;;;;4975893;28;20188;-30
2023/01/04 05:52:46;;;;;;;16.17;9.10;;;1.80;99.90;;;;;;4993496;28;20180;-30
2023/01/04 05:55:12;;;;;;;18.40;9.83;;;1.80;99.90;;;;;;4959423;28;20262;-29
2023/01/04 05:57:37;;;;;;;14.83;9.20;;;1.90;99.90;;;;;;4975953;28;20180;-29
2023/01/04 06:00:06;;;;;;;14.10;8.97;;;1.90;99.90;;;;;;4975572;28;20208;-30
2023/01/04 06:02:38;;;;;;;9.83;7.47;;;1.90;99.90;;;;;;4993195;28;20164;-31
2023/01/04 06:05:05;;;;;;;9.50;8.50;;;2.00;99.90;;;;;;4993045;28;20219;-30
2023/01/04 06:07:31;;;;;;;9.70;7.40;;;2.00;99.90;;;;;;4975775;28;20188;-30
2023/01/04 06:09:57;;;;;;;10.20;8.20;;;2.00;99.90;;;;;;4975295;28;20211;-31
2023/01/04 06:12:24;;;;;;;9.47;7.40;;;2.00;99.90;;;;;;4959364;28;20176;-30
2023/01/04 06:14:50;;;;;;;7.37;6.00;;;2.00;99.90;;;;;;4975280;28;20188;-30
2023/01/04 06:17:16;;;;;;;6.93;5.67;;;2.00;99.90;;;;;;4959350;28;20184;-31
2023/01/04 06:19:41;;;;;;;8.93;7.37;;;2.00;99.90;;;;;;4975338;28;20206;-30
2023/01/04 06:22:07;;;;;;;11.70;8.37;;;2.00;99.90;;;;;;4975405;28;20195;-30
2023/01/04 06:24:33;;;;;;;13.67;10.43;;;2.00;99.90;;;;;;4975271;28;20215;-30
2023/01/04 06:27:00;;;;;;;12.23;9.27;;;2.10;99.90;;;;;;4975224;28;20176;-29
2023/01/04 06:29:25;;;;;;;8.17;7.23;;;2.00;99.90;;;;;;4992424;28;20319;-30
2023/01/04 06:31:51;;;;;;;8.33;6.60;;;2.00;99.90;;;;;;4975636;28;20241;-30
2023/01/04 06:34:17;;;;;;;8.23;7.13;;;2.00;99.90;;;;;;4957975;28;20651;-30
2023/01/04 06:36:43;;;;;;;8.03;6.73;;;2.00;99.90;;;;;;4967347;28;20558;-31
2023/01/04 06:39:09;;;;;;;7.93;6.60;;;2.10;99.90;;;;;;4958844;28;20678;-30
2023/01/04 06:41:35;;;;;;;7.17;6.20;;;2.20;99.90;;;;;;4958963;28;20275;-30
2023/01/04 06:44:01;;;;;;;7.47;5.60;;;2.20;99.90;;;;;;4958321;28;20277;-31
2023/01/04 06:46:27;;;;;;;7.93;6.03;;;2.40;99.90;;;;;;4974798;28;20188;-31
2023/01/04 06:48:53;;;;;;;7.33;5.90;;;2.50;99.90;;;;;;4974598;28;20257;-31
2023/01/04 06:51:22;;;;;;;8.70;5.80;;;2.60;99.90;;;;;;4991852;28;20172;-31
2023/01/04 06:53:48;;;;;;;6.53;5.13;;;2.70;99.90;;;;;;4958866;28;20275;-30
2023/01/04 06:56:14;;;;;;;6.50;5.10;;;2.80;99.90;;;;;;4974816;28;20239;-31
2023/01/04 06:58:40;;;;;;;7.87;5.40;;;2.90;99.90;;;;;;4974589;28;20203;-31
2023/01/04 07:01:06;;;;;;;10.37;7.47;;;3.00;99.90;;;;;;4974579;28;20183;-31
2023/01/04 07:03:32;;;;;;;8.93;6.00;;;3.10;99.90;;;;;;4958288;28;20211;-31
2023/01/04 07:05:58;;;;;;;6.20;4.90;;;3.20;99.90;;;;;;4991912;28;20204;-31
2023/01/04 07:08:24;;;;;;;8.90;6.20;;;3.30;99.90;;;;;;4991858;28;20295;-31
2023/01/04 07:10:50;;;;;;;11.10;7.73;;;3.30;99.90;;;;;;4974444;28;20175;-30
2023/01/04 07:13:16;;;;;;;7.63;5.33;;;3.40;99.90;;;;;;4992158;28;20292;-31
2023/01/04 07:15:42;;;;;;;7.93;5.53;;;3.50;99.90;;;;;;4974328;28;20267;-31
2023/01/04 07:18:09;;;;;;;7.27;5.57;;;3.60;99.90;;;;;;4974221;28;20295;-30
2023/01/04 07:20:36;;;;;;;6.90;5.90;;;3.70;99.90;;;;;;4974274;28;20194;-31
2023/01/04 07:23:02;;;;;;;8.07;6.03;;;3.70;99.90;;;;;;4991989;28;20186;-31
2023/01/04 07:25:28;;;;;;;8.23;5.93;;;3.80;99.90;;;;;;4974488;28;20208;-30
2023/01/04 07:27:54;;;;;;;8.67;5.37;;;3.90;99.90;;;;;;4974178;28;20214;-31
2023/01/04 07:30:21;;;;;;;6.67;4.33;;;4.00;99.90;;;;;;4973736;28;20187;-31
2023/01/04 07:32:48;;;;;;;9.00;6.60;;;4.20;99.90;;;;;;4974101;28;20176;-30
2023/01/04 07:35:14;;;;;;;7.80;5.93;;;4.30;99.90;;;;;;4974143;28;20191;-30
2023/01/04 07:37:42;;;;;;;7.87;6.53;;;4.40;99.90;;;;;;4973911;28;20176;-31
2023/01/04 07:40:08;;;;;;;7.60;5.27;;;4.50;99.90;;;;;;4973928;28;20278;-30
2023/01/04 07:42:34;;;;;;;9.00;4.50;;;4.50;99.90;;;;;;4958007;28;20180;-30
2023/01/04 07:45:00;;;;;;;6.47;4.30;;;4.50;99.90;;;;;;4990917;28;20282;-29
2023/01/04 07:47:27;;;;;;;4.70;3.50;;;4.60;99.90;;;;;;4974171;28;20172;-31
2023/01/04 07:49:53;;;;;;;3.43;2.93;;;4.60;99.90;;;;;;4973547;28;20215;-31
2023/01/04 07:52:19;;;;;;;4.87;3.93;;;4.50;99.90;;;;;;4957305;28;20241;-31
2023/01/04 07:54:44;;;;;;;5.27;4.30;;;4.60;99.90;;;;;;4991378;28;20712;-32
2023/01/04 07:57:10;;;;;;;5.27;4.17;;;4.60;99.90;;;;;;4974005;28;20188;-31
2023/01/04 07:59:36;;;;;;;6.17;4.70;;;4.70;99.90;;;;;;4973650;28;20192;-31
2023/01/04 08:02:02;;;;;;;3.77;3.07;;;4.70;99.90;;;;;;4991431;28;20192;-31
2023/01/04 08:04:28;;;;;;;5.20;3.60;;;4.70;99.90;;;;;;4989889;28;20676;-31
2023/01/04 08:06:53;;;;;;;5.17;3.50;;;4.80;99.90;;;;;;4973790;28;20225;-30
2023/01/04 08:09:19;;;;;;;4.07;3.17;;;4.80;99.90;;;;;;4957367;28;20214;-30
2023/01/04 08:11:45;;;;;;;4.53;2.93;;;4.90;99.90;;;;;;4991331;28;20647;-29
2023/01/04 08:14:11;;;;;;;5.20;3.20;;;4.90;99.90;;;;;;4973524;28;20221;-31
2023/01/04 08:16:39;;;;;;;6.53;3.47;;;4.90;99.90;;;;;;4974033;28;20196;-31
2023/01/04 08:19:10;;;;;;;5.47;2.83;;;5.00;99.90;;;;;;4973393;28;20207;-32
2023/01/04 08:21:36;;;;;;;3.43;2.60;;;5.00;99.90;;;;;;4973511;28;20191;-30
2023/01/04 08:24:03;;;;;;;3.27;2.43;;;5.10;99.90;;;;;;4957692;28;20184;-32
2023/01/04 08:26:29;;;;;;;3.77;2.47;;;5.20;99.90;;;;;;4973553;28;20263;-30
2023/01/04 08:28:55;;;;;;;4.63;2.60;;;5.20;99.90;;;;;;4990611;28;20200;-31
2023/01/04 08:31:30;;;;;;;2.63;2.00;;;5.30;99.90;;;;;;4973408;28;20236;-32
2023/01/04 08:33:57;;;;;;;2.60;1.90;;;5.40;99.90;;;;;;4991097;28;20188;-32
2023/01/04 08:36:28;;;;;;;4.53;2.10;;;5.40;99.90;;;;;;4988993;28;20197;-30
2023/01/04 08:38:56;;;;;;;2.63;1.90;;;5.50;99.90;;;;;;4981970;28;20191;-32
2023/01/04 08:41:22;;;;;;;4.73;2.23;;;5.50;99.90;;;;;;4989777;28;20210;-31
2023/01/04 08:43:48;;;;;;;4.70;2.10;;;5.50;99.90;;;;;;4976583;28;20208;-31
2023/01/04 08:46:14;;;;;;;3.40;1.93;;;5.60;99.90;;;;;;5010494;28;20209;-31
2023/01/04 08:48:40;;;;;;;3.63;1.73;;;5.70;99.90;;;;;;4992729;28;20332;-31
2023/01/04 08:51:09;;;;;;;2.73;1.50;;;5.80;99.90;;;;;;4992180;28;20235;-30
2023/01/04 08:53:36;;;;;;;10.57;2.00;;;5.90;99.90;;;;;;5010213;28;20579;-31
2023/01/04 08:56:03;;;;;;;2.40;1.50;;;6.00;99.90;;;;;;5010461;28;20185;-30
2023/01/04 08:58:30;;;;;;;2.47;1.47;;;6.00;99.90;;;;;;5012227;28;20228;-32
2023/01/04 09:01:01;;;;;;;4.00;1.70;;;6.10;99.90;;;;;;4996565;28;20208;-31
2023/01/04 09:03:27;;;;;;;2.47;1.80;;;6.10;99.90;;;;;;4995928;28;20185;-30
2023/01/04 09:05:53;;;;;;;2.53;1.73;;;6.10;99.90;;;;;;4984801;28;20210;-31
2023/01/04 09:08:19;;;;;;;2.57;1.70;;;6.20;99.90;;;;;;4976399;28;20207;-30
2023/01/04 09:10:45;;;;;;;1.50;1.40;;;6.30;99.90;;;;;;4994155;28;20186;-30
2023/01/04 09:13:11;;;;;;;2.60;1.80;;;6.40;99.90;;;;;;4994518;28;20179;-32
2023/01/04 09:15:36;;;;;;;2.90;1.60;;;6.40;99.90;;;;;;4994435;28;20186;-31
2023/01/04 09:18:03;;;;;;;2.10;1.50;;;6.40;99.90;;;;;;4976391;28;20253;-32
2023/01/04 09:20:29;;;;;;;2.67;1.70;;;6.50;99.90;;;;;;4960673;28;20238;-30
2023/01/04 09:22:57;;;;;;;3.57;1.60;;;6.50;99.90;;;;;;4992512;28;20189;-32
2023/01/04 09:25:23;;;;;;;2.53;1.33;;;6.50;99.90;;;;;;4993916;28;20250;-31
2023/01/04 09:27:49;;;;;;;1.10;0.93;;;6.60;99.90;;;;;;4993708;28;20183;-31
2023/01/04 09:30:14;;;;;;;5.53;1.77;;;6.60;99.90;;;;;;4993699;28;20176;-32
2023/01/04 09:32:40;;;;;;;2.30;1.17;;;6.70;99.90;;;;;;4959979;28;20184;-30
2023/01/04 09:35:07;;;;;;;1.43;1.10;;;6.70;99.90;;;;;;4992696;28;20187;-32
2023/01/04 09:37:32;;;;;;;2.20;1.10;;;6.70;99.90;;;;;;4975878;28;20193;-31
2023/01/04 09:39:58;;;;;;;1.60;1.20;;;6.80;99.90;;;;;;4992095;28;20288;-31
2023/01/04 09:42:37;;;;;;;1.17;0.70;;;6.80;99.90;;;;;;4960086;28;20206;-31
2023/01/04 09:45:17;;;;;;;1.77;1.20;;;6.80;99.90;;;;;;4993034;28;20353;-31
2023/01/04 09:47:55;;;;;;;1.97;0.90;;;6.80;99.90;;;;;;4992239;28;20210;-30
2023/01/04 09:50:32;;;;;;;3.10;1.10;;;6.90;99.90;;;;;;4959648;28;20187;-31
2023/01/04 09:53:04;;;;;;;1.70;1.00;;;7.00;99.90;;;;;;4975962;28;20174;-32
2023/01/04 09:55:38;;;;;;;1.53;0.90;;;7.00;99.90;;;;;;4975653;28;20567;-31
2023/01/04 09:58:18;;;;;;;2.53;1.27;;;7.00;99.90;;;;;;4993370;28;20209;-32
2023/01/04 10:00:48;;;;;;;1.23;0.70;;;7.00;99.90;;;;;;4959638;28;20190;-30
2023/01/04 10:03:20;;;;;;;1.50;0.80;;;7.10;99.90;;;;;;4993356;28;20194;-30
2023/01/04 10:05:46;;;;;;;1.07;0.90;;;7.20;99.90;;;;;;4959514;28;20214;-31
2023/01/04 10:08:16;;;;;;;5.13;2.57;;;7.20;99.90;;;;;;4975529;28;20201;-31
2023/01/04 10:11:08;;;;;;;2.80;1.97;;;7.30;99.90;;;;;;4975409;28;20172;-30
2023/01/04 10:13:55;;;;;;;3.87;3.07;;;7.30;99.90;;;;;;4993054;28;20279;-32
2023/01/04 10:16:48;;;;;;;2.00;1.60;;;7.30;99.90;;;;;;4992929;28;20179;-31
2023/01/04 10:19:36;;;;;;;1.30;1.00;;;7.30;99.90;;;;;;4975172;28;20207;-31
2023/01/04 10:22:06;;;;;;;1.20;1.00;;;7.30;99.90;;;;;;4992818;28;20188;-31
2023/01/04 10:24:48;;;;;;;1.87;1.20;;;7.30;99.90;;;;;;4975161;28;20215;-32
2023/01/04 10:27:16;;;;;;;2.63;1.30;;;7.30;99.90;;;;;;4993053;28;20174;-30
2023/01/04 10:30:03;;;;;;;3.20;2.20;;;7.30;99.90;;;;;;4992714;28;20203;-32
2023/01/04 10:32:39;;;;;;;2.70;1.80;;;7.30;99.90;;;;;;4992655;28;20183;-30
2023/01/04 10:35:24;;;;;;;1.97;1.20;;;7.30;99.90;;;;;;4975138;28;20187;-30
2023/01/04 10:37:56;;;;;;;2.67;1.50;;;7.30;99.90;;;;;;4985069;28;20183;-31
2023/01/04 10:40:23;;;;;;;1.90;1.40;;;7.30;99.90;;;;;;4975109;28;20188;-30
2023/01/04 10:43:11;;;;;;;4.10;2.10;;;7.30;99.90;;;;;;4975026;28;20187;-32
2023/01/04 10:45:56;;;;;;;4.10;2.37;;;7.30;99.90;;;;;;4992307;28;20211;-31
2023/01/04 10:48:53;;;;;;;3.93;2.27;;;7.30;99.90;;;;;;4958558;28;20209;-31
2023/01/04 10:51:44;;;;;;;4.40;2.27;;;7.30;99.90;;;;;;4992342;28;20178;-30
2023/01/04 10:54:18;;;;;;;3.23;1.50;;;7.40;99.90;;;;;;4992554;28;20190;-30
2023/01/04 10:57:08;;;;;;;2.33;1.37;;;7.50;99.90;;;;;;4974681;28;20180;-32
2023/01/04 10:59:45;;;;;;;2.80;1.90;;;7.50;99.90;;;;;;4958487;28;20211;-32
2023/01/04 11:02:41;;;;;;;2.93;1.67;;;7.60;99.90;;;;;;4958341;28;20186;-31
2023/01/04 11:05:37;;;;;;;2.93;1.80;;;7.60;99.90;;;;;;4978244;28;20295;-31
2023/01/04 11:08:15;;;;;;;2.23;1.57;;;7.70;99.90;;;;;;4966025;28;20769;-32
2023/01/04 11:10:49;;;;;;;1.63;1.40;;;7.70;99.90;;;;;;4974222;28;20187;-31
2023/01/04 11:13:15;;;;;;;1.20;1.10;;;7.70;99.90;;;;;;4992100;28;20186;-31
2023/01/04 11:15:42;;;;;;;2.23;1.43;;;7.80;99.90;;;;;;4991898;28;20281;-32
2023/01/04 11:18:12;;;;;;;2.23;1.53;;;7.80;99.90;;;;;;4974403;28;20253;-31
2023/01/04 11:20:39;;;;;;;2.73;1.80;;;7.80;99.90;;;;;;4973406;28;20184;-32
2023/01/04 11:23:14;;;;;;;3.57;1.20;;;7.80;99.90;;;;;;4958278;28;20182;-31
2023/01/04 11:26:07;;;;;;;1.47;1.33;;;7.90;99.90;;;;;;4974204;28;20226;-31
2023/01/04 11:28:51;;;;;;;2.40;1.30;;;7.80;99.90;;;;;;4958043;28;20200;-31
2023/01/04 11:31:35;;;;;;;2.70;1.50;;;7.80;99.90;;;;;;4958053;28;20204;-31
2023/01/04 11:34:02;;;;;;;2.67;1.50;;;7.80;99.90;;;;;;4974516;28;20269;-32
2023/01/04 11:36:37;;;;;;;2.93;1.77;;;7.90;99.90;;;;;;4974223;28;20214;-31
2023/01/04 11:39:06;;;;;;;6.77;3.93;;;7.90;99.90;;;;;;4973679;28;20207;-31
2023/01/04 11:41:32;;;;;;;2.50;1.97;;;7.90;99.90;;;;;;4958278;28;20184;-31
2023/01/04 11:44:05;;;;;;;2.17;1.73;;;7.90;99.90;;;;;;4991267;28;20176;-32
2023/01/04 11:46:33;;;;;;;3.10;1.30;;;8.00;99.90;;;;;;4973885;28;20279;-30
2023/01/04 11:48:59;;;;;;;1.30;1.20;;;8.00;99.90;;;;;;4973748;28;20219;-31
2023/01/04 11:51:28;;;;;;;2.27;1.30;;;8.10;99.90;;;;;;4974086;28;20199;-30
2023/01/04 11:54:16;;;;;;;2.70;1.10;;;8.10;99.90;;;;;;4990871;28;20234;-33
2023/01/04 11:57:09;;;;;;;1.17;0.97;;;8.10;99.90;;;;;;4973806;28;20190;-32
2023/01/04 11:59:35;;;;;;;1.73;1.20;;;8.20;99.90;;;;;;4973839;28;20204;-30
2023/01/04 12:02:24;;;;;;;1.43;1.30;;;8.30;99.90;;;;;;4974040;28;20180;-32
2023/01/04 12:04:52;;;;;;;1.70;1.10;;;8.30;99.90;;;;;;4973654;28;20299;-32
2023/01/04 12:07:32;;;;;;;2.77;1.30;;;8.40;99.90;;;;;;4989637;28;20222;-30
2023/01/04 12:10:00;;;;;;;2.30;1.40;;;8.50;99.90;;;;;;4971848;28;20200;-32
2023/01/04 12:12:33;;;;;;;2.67;1.60;;;8.50;99.90;;;;;;4972029;28;20837;-32
2023/01/04 12:15:15;;;;;;;2.50;1.60;;;8.50;99.90;;;;;;4938360;28;20188;-31
2023/01/04 12:18:06;;;;;;;2.53;1.70;;;8.50;99.90;;;;;;4971621;28;20200;-32
2023/01/04 12:20:34;;;;;;;3.60;2.13;;;8.60;99.90;;;;;;4954107;28;20193;-30
2023/01/04 12:23:00;;;;;;;2.77;1.80;;;8.50;99.90;;;;;;4954062;28;20181;-30
2023/01/04 12:25:44;;;;;;;1.70;1.43;;;8.60;99.90;;;;;;4971696;28;20208;-33
2023/01/04 12:28:33;;;;;;;2.80;1.40;;;8.70;99.90;;;;;;4971447;28;20215;-32
2023/01/04 12:31:17;;;;;;;2.40;1.43;;;8.70;99.90;;;;;;4971563;28;20189;-32
2023/01/04 12:33:44;;;;;;;2.93;2.03;;;8.80;99.90;;;;;;4956795;28;20258;-31
2023/01/04 12:36:17;;;;;;;2.07;1.10;;;8.80;99.90;;;;;;4958785;28;20176;-31
2023/01/04 12:39:21;;;;;;;1.53;1.30;;;8.90;99.90;;;;;;4976995;28;20282;-30
2023/01/04 12:41:59;;;;;;;2.70;1.20;;;8.90;99.90;;;;;;4976893;28;20179;-32
2023/01/04 12:44:45;;;;;;;4.50;1.70;;;9.00;99.90;;;;;;4994488;28;20218;-32
2023/01/04 12:50:11;;;;;;;2.20;1.70;;;9.10;99.90;;;;;;4994486;28;20279;-31
2023/01/04 12:52:46;;;;;;;1.40;1.30;;;9.20;99.90;;;;;;4977028;28;20270;-31
2023/01/04 12:55:18;;;;;;;1.07;0.80;;;9.20;99.90;;;;;;4961037;28;20171;-31
2023/01/04 12:57:44;;;;;;;1.30;1.10;;;9.20;99.90;;;;;;4960760;28;20195;-31
2023/01/04 13:00:11;;;;;;;1.50;1.20;;;9.30;99.90;;;;;;4977061;28;20172;-31
2023/01/04 13:02:49;;;;;;;2.73;1.17;;;9.30;99.90;;;;;;4976686;28;20191;-32
2023/01/04 13:05:18;;;;;;;2.87;1.50;;;9.30;99.90;;;;;;4994325;28;20207;-32
2023/01/04 13:07:46;;;;;;;1.10;1.00;;;9.30;99.90;;;;;;4984888;28;20180;-32
2023/01/04 13:10:19;;;;;;;2.90;1.50;;;9.30;99.90;;;;;;4976384;28;20183;-31
2023/01/04 13:13:25;;;;;;;3.83;1.77;;;9.40;99.90;;;;;;4976857;28;20180;-31
2023/01/04 13:16:10;;;;;;;4.03;2.30;;;9.40;99.90;;;;;;4976853;28;20184;-31
2023/01/04 13:18:43;;;;;;;3.10;2.00;;;9.50;99.90;;;;;;4994010;28;20211;-31
2023/01/04 13:21:16;;;;;;;4.23;1.40;;;9.50;99.90;;;;;;4993346;28;20188;-31
2023/01/04 13:23:59;;;;;;;2.30;1.60;;;9.50;99.90;;;;;;4976662;28;20319;-31
2023/01/04 13:26:38;;;;;;;3.10;1.53;;;9.50;99.90;;;;;;4976631;28;20218;-30
2023/01/04 13:29:05;;;;;;;2.20;1.40;;;9.40;99.90;;;;;;4976186;28;20200;-31
2023/01/04 13:31:31;;;;;;;2.83;2.43;;;9.50;99.90;;;;;;4976341;28;20180;-30
2023/01/04 13:33:58;;;;;;;0.93;0.73;;;9.50;99.90;;;;;;4994037;28;20234;-31
2023/01/04 13:36:24;;;;;;;1.00;0.83;;;9.60;99.90;;;;;;4975839;28;20187;-30
2023/01/04 13:38:50;;;;;;;1.70;0.90;;;9.60;99.90;;;;;;4993668;28;20200;-31
2023/01/04 13:41:21;;;;;;;1.93;0.90;;;9.70;99.90;;;;;;4993741;28;20275;-31
2023/01/04 13:44:33;;;;;;;1.40;0.80;;;9.80;99.90;;;;;;4975914;28;20183;-31
2023/01/04 13:47:00;;;;;;;1.10;0.70;;;9.80;99.90;;;;;;4975578;28;20246;-30
2023/01/04 13:49:26;;;;;;;1.50;0.60;;;9.90;99.90;;;;;;4992730;28;20587;-31
2023/01/04 13:51:51;;;;;;;0.80;0.80;;;9.90;99.90;;;;;;4976154;28;20180;-30
2023/01/04 13:54:21;;;;;;;1.03;0.50;;;10.10;99.90;;;;;;4975825;28;20203;-31
2023/01/04 13:56:47;;;;;;;1.27;0.80;;;10.10;99.90;;;;;;4993607;28;20235;-31
2023/01/04 13:59:14;;;;;;;2.00;0.90;;;10.10;99.90;;;;;;4993251;28;20192;-30